11 augustus 2022

Tijd Code Weer Temp. Zicht Plafond Wind METAR/SPECI
1:00 a.m.
V
64 °F 9 mi - 200° 200° 6 kt METAR CYHU 110500Z AUTO 20006KT 9SM CLR 18/16 A2993 RMK SLP137 DENSITY ALT 500FT
12:00 a.m.
V
64 °F 9 mi - 200° 200° 3 kt METAR CYHU 110400Z AUTO 20003KT 9SM CLR 18/15 A2994 RMK SLP141 DENSITY ALT 500FT

10 augustus 2022

Tijd Code Weer Temp. Zicht Plafond Wind METAR/SPECI
11:00 p.m.
V
66 °F 9 mi - 180° 180° 6 kt METAR CYHU 110300Z AUTO 18006KT 9SM CLR 19/16 A2995 RMK SLP145 DENSITY ALT 500FT
8:00 a.m.
V
64 °F 9 mi 5.000 ft Var 000° 0 kt METAR CYHU 101200Z AUTO 00000KT 9SM OVC050 18/16 A3010 RMK SLP193 DENSITY ALT 300FT
7:00 a.m.
V
63 °F 9 mi 4.800 ft Var 000° 0 kt METAR CYHU 101100Z AUTO 00000KT 9SM OVC048 17/16 A3008 RMK SLP189 DENSITY ALT 200FT
6:00 a.m.
V
63 °F 9 mi 5.000 ft Var 000° 0 kt METAR CYHU 101000Z AUTO 00000KT 9SM OVC050 17/16 A3007 RMK SLP185 DENSITY ALT 200FT
5:45 a.m.
V
63 °F 9 mi 5.000 ft Var 000° 0 kt METAR CYHU 100945Z AUTO 00000KT 9SM OVC050 17/16 A3007 RMK SLP184 DENSITY ALT 200FT
5:43 a.m.
M
63 °F 4 mi 5.000 ft Var 000° 0 kt METAR CYHU 100943Z AUTO 00000KT 4SM BR OVC050 17/15 A3007 RMK SLP184 DENSITY ALT 200FT
5:13 a.m.
I
63 °F 1½ mi 5.000 ft Var 000° 0 kt METAR CYHU 100913Z AUTO 00000KT 1 1/2SM BR OVC050 17/15 A3007 RMK SLP183 DENSITY ALT 200FT
5:00 a.m.
V
63 °F 9 mi 5.000 ft Var 000° 0 kt METAR CYHU 100900Z AUTO 00000KT 9SM OVC050 17/15 A3006 RMK SLP182 DENSITY ALT 200FT
4:00 a.m.
V
63 °F 9 mi 5.000 ft 020° 020° 2 kt METAR CYHU 100800Z AUTO 02002KT 9SM SCT028 OVC050 17/16 A3006 RMK SLP181 DENSITY ALT 200FT
3:00 a.m.
V
63 °F 9 mi 5.000 ft Var 000° 0 kt METAR CYHU 100700Z AUTO 00000KT 9SM FEW028 OVC050 17/15 A3006 RMK SLP180 DENSITY ALT 200FT
2:00 a.m.
V
63 °F 9 mi 5.000 ft Var 000° 0 kt METAR CYHU 100600Z AUTO 00000KT 9SM OVC050 17/15 A3005 RMK SLP178 DENSITY ALT 200FT
1:00 a.m.
V
63 °F 9 mi 5.000 ft Var 000° 0 kt METAR CYHU 100500Z AUTO 00000KT 9SM OVC050 17/15 A3005 RMK SLP178 DENSITY ALT 300FT
12:00 a.m.
V
63 °F 9 mi 3.100 ft Var 000° 0 kt METAR CYHU 100400Z AUTO 00000KT 9SM BKN031 OVC050 17/15 A3005 RMK SLP178 DENSITY ALT 200FT

9 augustus 2022

Tijd Code Weer Temp. Zicht Plafond Wind METAR/SPECI
11:00 p.m.
V
63 °F 9 mi 5.000 ft 010° 010° 2 kt METAR CYHU 100300Z AUTO 01002KT 9SM SCT027 OVC050 17/15 A3005 RMK SLP178 DENSITY ALT 200FT
10:00 p.m.
V
63 °F 9 mi 5.500 ft 050° 050° 2 kt METAR CYHU 100200Z AUTO 05002KT 9SM FEW032 OVC055 17/15 A3005 RMK SLP178 DENSITY ALT 300FT
9:00 p.m.
V
63 °F 9 mi 3.000 ft 030° 030° 3 kt METAR CYHU 100100Z AUTO 03003KT 9SM OVC030 17/15 A3005 RMK SLP176 DENSITY ALT 300FT
8:57 p.m.
V
63 °F 7 mi 3.000 ft 030° 030° 3 kt METAR CYHU 100057Z AUTO 03003KT 7SM OVC030 17/15 A3005 RMK SLP176 DENSITY ALT 300FT
8:40 p.m.
I
63 °F 2¼ mi 2.800 ft 050° 050° 2 kt METAR CYHU 100040Z AUTO 05002KT 2 1/4SM BR OVC028 17/15 A3004 RMK SLP175 DENSITY ALT 300FT
8:24 p.m.
M
63 °F 5 mi 2.800 ft 040° 040° 3 kt METAR CYHU 100024Z AUTO 04003KT 5SM BR OVC028 17/15 A3004 RMK SLP174 DENSITY ALT 300FT
8:00 p.m.
M
63 °F 9 mi 2.800 ft 040° 040° 3 kt METAR CYHU 100000Z AUTO 04003KT 9SM OVC028 17/15 A3004 RMK SLP173 DENSITY ALT 300FT
7:00 p.m.
M
64 °F 9 mi 2.600 ft 020° 020° 8 kt METAR CYHU 092300Z AUTO 02008KT 9SM BKN026 OVC035 18/15 A3002 RMK SLP168 DENSITY ALT 400FT
6:00 p.m.
V
64 °F 9 mi 3.300 ft 040° 040° 5 kt METAR CYHU 092200Z AUTO 04005KT 9SM SCT024 OVC033 18/15 A3001 RMK SLP165 DENSITY ALT 400FT
5:28 p.m.
M
64 °F 9 mi 2.300 ft 020° 020° 7 kt METAR CYHU 092128Z AUTO 02007KT 9SM OVC023 18/15 A3001 RMK SLP164 DENSITY ALT 400FT
5:00 p.m.
M
66 °F 9 mi 2.700 ft 010° 010° 10 - 15 kt METAR CYHU 092100Z AUTO 01010G15KT 9SM OVC027 19/15 A3000 RMK SLP162 DENSITY ALT 500FT
4:20 p.m.
M
64 °F 9 mi 2.400 ft 360° 360° 9 kt METAR CYHU 092020Z AUTO 36009KT 9SM BKN024 BKN030 OVC034 18/15 A3001 RMK SLP163 DENSITY ALT 400FT
4:00 p.m.
V
66 °F 9 mi 3.400 ft 360° 360° 8 kt METAR CYHU 092000Z AUTO 36008KT 9SM FEW022 BKN034 OVC045 19/15 A3000 RMK SLP162 DENSITY ALT 500FT
3:52 p.m.
V
64 °F 9 mi 3.400 ft 360° 360° 7 kt METAR CYHU 091952Z AUTO 36007KT 9SM FEW019 SCT024 OVC034 18/15 A3000 RMK SLP162 DENSITY ALT 500FT
2:54 p.m.
M
64 °F 9 mi 2.300 ft 360° 360° 6 kt METAR CYHU 091854Z AUTO 36006KT 9SM SCT019 BKN023 BKN028 OVC033 18/15 A2999 RMK SLP157 DENSITY ALT 400FT
2:35 p.m.
V
64 °F 9 mi 3.100 ft 340° 340° 10 kt METAR CYHU 091835Z AUTO 34010KT 9SM FEW013 SCT021 OVC031 18/15 A2999 RMK SLP158 DENSITY ALT 400FT
2:00 p.m.
M
63 °F 9 mi 2.000 ft 360° 360° 10 kt METAR CYHU 091800Z AUTO 36010KT 9SM SCT014 OVC020 17/15 A2999 RMK SLP157 DENSITY ALT 300FT
1:21 p.m.
M
63 °F 9 mi 1.500 ft 360° 360° 7 kt METAR CYHU 091721Z AUTO 36007KT 9SM OVC015 17/15 A2998 RMK SLP154 DENSITY ALT 300FT
1:10 p.m.
M
61 °F 8 mi 1.500 ft 360° 360° 9 kt METAR CYHU 091710Z AUTO 36009KT 8SM -RA FEW010 OVC015 16/15 A2998 RMK SLP153 DENSITY ALT 300FT
1:00 p.m.
M
63 °F 9 mi 1.400 ft 040° 040° 10 kt METAR CYHU 091700Z AUTO 04010KT 330V060 9SM FEW010 BKN014 BKN019 OVC025 17/15 A2997 RMK SLP152 DENSITY ALT 400FT
12:38 p.m.
M
63 °F 7 mi 1.600 ft 360° 360° 8 kt METAR CYHU 091638Z AUTO 36008KT 7SM SCT010 BKN016 OVC023 17/15 A2996 RMK SLP149 DENSITY ALT 300FT
12:23 p.m.
M
61 °F 5 mi 1.300 ft 350° 350° 10 kt METAR CYHU 091623Z AUTO 35010KT 5SM BR BKN013 OVC020 16/15 A2996 RMK SLP148 DENSITY ALT 300FT
12:00 p.m.
M
63 °F 9 mi 1.300 ft 020° 020° 11 kt METAR CYHU 091600Z AUTO 02011KT 9SM OVC013 17/15 A2996 RMK SLP147 DENSITY ALT 300FT
11:00 a.m.
M
63 °F 9 mi 1.100 ft 360° 360° 9 kt METAR CYHU 091500Z AUTO 36009KT 350V060 9SM BKN011 OVC018 17/15 A2994 RMK SLP140 DENSITY ALT 300FT
10:51 a.m.
M
61 °F 9 mi 1.100 ft 030° 030° 8 kt METAR CYHU 091451Z AUTO 03008KT 9SM BKN011 OVC018 16/15 A2994 RMK SLP139 DENSITY ALT 300FT
10:41 a.m.
I
61 °F 8 mi 900 ft 040° 040° 9 kt METAR CYHU 091441Z AUTO 04009KT 8SM -RA OVC009 16/15 A2993 RMK SLP138 DENSITY ALT 200FT
10:32 a.m.
I
61 °F 9 mi 900 ft 030° 030° 7 kt METAR CYHU 091432Z AUTO 03007KT 9SM BKN009 OVC013 16/15 A2993 RMK SLP137 DENSITY ALT 200FT
10:15 a.m.
M
61 °F 9 mi 1.300 ft 030° 030° 9 kt METAR CYHU 091415Z AUTO 03009KT 9SM SCT009 OVC013 16/15 A2993 RMK SLP136 DENSITY ALT 200FT
10:11 a.m.
M
61 °F 9 mi 1.100 ft 020° 020° 10 kt METAR CYHU 091411Z AUTO 02010KT 9SM OVC011 16/14 A2992 RMK SLP135 DENSITY ALT 200FT
10:03 a.m.
I
61 °F 9 mi 900 ft 360° 360° 10 kt METAR CYHU 091403Z AUTO 36010KT 9SM BKN009 OVC013 16/14 A2992 RMK SLP134 DENSITY ALT 200FT
10:00 a.m.
M
61 °F 9 mi 1.100 ft 360° 360° 9 kt METAR CYHU 091400Z AUTO 36009KT 9SM OVC011 16/14 A2992 RMK SLP133 DENSITY ALT 200FT
9:37 a.m.
M
61 °F 9 mi 1.100 ft 020° 020° 10 - 15 kt METAR CYHU 091337Z AUTO 02010G15KT 9SM OVC011 16/14 A2991 RMK SLP131 DENSITY ALT 200FT
9:02 a.m.
I
59 °F 7 mi 800 ft 020° 020° 9 kt METAR CYHU 091302Z AUTO 02009KT 7SM OVC008 15/14 A2990 RMK SLP127 DENSITY ALT 200FT
9:00 a.m.
M
59 °F 7 mi 1.000 ft 010° 010° 7 kt METAR CYHU 091300Z AUTO 01007KT 7SM OVC010 15/14 A2990 RMK SLP126 DENSITY ALT 200FT
8:29 a.m.
M
59 °F 9 mi 1.000 ft 040° 040° 8 kt METAR CYHU 091229Z AUTO 04008KT 9SM OVC010 15/14 A2989 RMK SLP123 DENSITY ALT 200FT
8:09 a.m.
I
59 °F 9 mi 800 ft 010° 010° 7 kt METAR CYHU 091209Z AUTO 01007KT 9SM OVC008 15/14 A2988 RMK PRESRR SLP121 DENSITY ALT 200FT
7:58 a.m.
M
59 °F 9 mi 1.000 ft 020° 020° 7 kt METAR CYHU 091158Z AUTO 02007KT 9SM -RA OVC010 15/14 A2988 RMK SLP119 DENSITY ALT 200FT
7:00 a.m.
I
59 °F 9 mi 600 ft 020° 020° 9 kt METAR CYHU 091100Z AUTO 02009KT 9SM OVC006 15/14 A2985 RMK SLP110 DENSITY ALT 200FT
6:42 a.m.
I
59 °F 9 mi 600 ft 020° 020° 11 - 16 kt METAR CYHU 091042Z AUTO 02011G16KT 9SM BKN006 OVC010 15/14 A2984 RMK SLP106 DENSITY ALT 200FT
6:08 a.m.
I
59 °F 9 mi 800 ft 360° 360° 8 kt METAR CYHU 091008Z AUTO 36008KT 9SM BKN008 OVC014 15/14 A2983 RMK SLP102 DENSITY ALT 200FT
5:19 a.m.
M
57 °F 9 mi 1.400 ft 020° 020° 8 kt METAR CYHU 090919Z AUTO 02008KT 9SM FEW009 BKN014 BKN022 OVC033 14/14 A2981 RMK SLP095 DENSITY ALT 200FT
5:17 a.m.
M
57 °F 9 mi 2.200 ft 020° 020° 8 kt METAR CYHU 090917Z AUTO 02008KT 9SM SCT012 BKN022 OVC033 14/14 A2980 RMK SLP094 DENSITY ALT 200FT
5:06 a.m.
V
57 °F 9 mi 3.300 ft 020° 020° 10 kt METAR CYHU 090906Z AUTO 02010KT 9SM FEW009 OVC033 14/14 A2980 RMK SLP093 DENSITY ALT 200FT
4:45 a.m.
V
57 °F 9 mi 3.100 ft 020° 020° 10 kt METAR CYHU 090845Z AUTO 02010KT 9SM OVC031 14/14 A2979 RMK SLP091 DENSITY ALT 200FT
4:26 a.m.
M
57 °F 7 mi 2.500 ft 010° 010° 8 kt METAR CYHU 090826Z AUTO 01008KT 7SM -RA FEW007 BKN025 OVC033 14/14 A2979 RMK SLP090 DENSITY ALT 200FT
4:19 a.m.
I
57 °F 3 mi 2.500 ft 010° 010° 8 kt METAR CYHU 090819Z AUTO 01008KT 3SM -RA BR FEW007 SCT021 BKN025 OVC035 14/14 A2979 RMK SLP090 DENSITY ALT 200FT
4:02 a.m.
I
57 °F 2¼ mi 2.200 ft 350° 350° 7 kt METAR CYHU 090802Z AUTO 35007KT 2 1/4SM -RA BR SCT007 BKN022 OVC037 14/14 A2979 RMK SLP089 DENSITY ALT 200FT
4:00 a.m.
I
57 °F 3 mi 2.200 ft 350° 350° 7 kt METAR CYHU 090800Z AUTO 35007KT 3SM -RA BR SCT009 BKN022 OVC037 14/14 A2979 RMK PCPN 16.4MM PAST HR SLP089 DENSITY ALT 200FT
3:47 a.m.
I
57 °F 3 mi 1.800 ft 360° 360° 7 kt METAR CYHU 090747Z AUTO 36007KT 3SM RA BR SCT005 BKN018 OVC030 14/14 A2978 RMK PCPN 16.2MM PAST HR SLP087 DENSITY ALT 200FT
3:39 a.m.
I
57 °F 2½ mi 1.400 ft 350° 350° 9 kt METAR CYHU 090739Z AUTO 35009KT 2 1/2SM +RA BR SCT005 SCT010 OVC014 14/14 A2978 RMK PCPN 15.2MM PAST HR SLP085 DENSITY ALT 200FT
3:35 a.m.
I
57 °F 2½ mi 1.600 ft 340° 340° 6 kt METAR CYHU 090735Z AUTO 34006KT 2 1/2SM -RA BR SCT005 SCT010 OVC016 14/14 A2978 RMK PRESRR PCPN 13.4MM PAST HR SLP086 DENSITY ALT 200FT
3:21 a.m.
I
57 °F 2½ mi 1.600 ft 030° 030° 9 kt METAR CYHU 090721Z AUTO 03009KT 2 1/2SM R24R/3000VP6000FT/ +RA BR FEW005 OVC016 14/13 A2976 RMK PCPN 10.9MM PAST HR SLP079 DENSITY ALT 200FT
3:18 a.m.
I
57 °F 2 mi 1.300 ft 020° 020° 8 kt METAR CYHU 090718Z AUTO 02008KT 2SM R24R/2800VP6000FT/ RA BR FEW005 BKN013 OVC032 14/13 A2976 RMK PCPN 10.2MM PAST HR SLP079 DENSITY ALT 200FT
3:00 a.m.
I
57 °F 1¾ mi 1.700 ft 010° 010° 9 - 15 kt METAR CYHU 090700Z AUTO 01009G15KT 1 3/4SM R24R/3500FT/N +RA BR FEW004 SCT008 BKN017 OVC032 14/13 A2975 RMK PCPN 12.4MM PAST HR ICE MISG SLP077 DENSITY ALT 200FT
2:58 a.m.
I
57 °F 1½ mi 1.700 ft 010° 010° 11 kt METAR CYHU 090658Z AUTO 01011KT 1 1/2SM R24R/3500FT/U +RA BR SCT006 BKN017 BKN026 OVC032 14/13 A2975 RMK PCPN 11.6MM PAST HR SLP076 DENSITY ALT 200FT
2:42 a.m.
I
57 °F 5 mi 800 ft 010° 010° 9 kt METAR CYHU 090642Z AUTO 01009KT 5SM +RA BR BKN008 OVC017 14/14 A2976 RMK PCPN 1.8MM PAST HR SLP080 DENSITY ALT 200FT
2:18 a.m.
I
57 °F 9 mi 800 ft 030° 030° 6 kt METAR CYHU 090618Z AUTO 03006KT 9SM -RA OVC008 14/14 A2976 RMK SLP078 DENSITY ALT 200FT
2:04 a.m.
I
57 °F 9 mi 800 ft 030° 030° 8 kt METAR CYHU 090604Z AUTO 03008KT 9SM OVC008 14/14 A2976 RMK SLP079 DENSITY ALT 200FT
1:50 a.m.
I
57 °F 6 mi 800 ft 020° 020° 8 kt METAR CYHU 090550Z AUTO 02008KT 6SM -RA BR OVC008 14/14 A2977 RMK PRESFR PCPN 2.5MM PAST HR SLP082 DENSITY ALT 200FT
1:38 a.m.
I
57 °F 5 mi 600 ft 350° 350° 7 kt METAR CYHU 090538Z AUTO 35007KT 330V030 5SM +RA BR BKN006 OVC011 14/14 A2978 RMK PRESRR PCPN 1.8MM PAST HR SLP087 DENSITY ALT 200FT
1:00 a.m.
I
57 °F 9 mi 800 ft 030° 030° 8 kt METAR CYHU 090500Z AUTO 03008KT 9SM -RA OVC008 14/14 A2978 RMK SLP085 DENSITY ALT 300FT
12:37 a.m.
I
59 °F 9 mi 800 ft 040° 040° 9 kt METAR CYHU 090437Z AUTO 04009KT 9SM -RA OVC008 15/14 A2979 RMK SLP089 DENSITY ALT 200FT
12:26 a.m.
I
59 °F 9 mi 800 ft 030° 030° 10 - 15 kt METAR CYHU 090426Z AUTO 03010G15KT 9SM OVC008 15/14 A2979 RMK SLP089 DENSITY ALT 200FT
12:13 a.m.
I
59 °F 6 mi 800 ft 040° 040° 10 - 16 kt METAR CYHU 090413Z AUTO 04010G16KT 6SM -RA BR OVC008 15/14 A2979 RMK SLP090 DENSITY ALT 300FT
12:00 a.m.
I
59 °F 5 mi 800 ft 020° 020° 7 kt METAR CYHU 090400Z AUTO 02007KT 5SM -RA BR OVC008 15/14 A2979 RMK SLP091 DENSITY ALT 300FT

8 augustus 2022

Tijd Code Weer Temp. Zicht Plafond Wind METAR/SPECI
11:44 p.m.
I
59 °F 5 mi 800 ft 030° 030° 9 kt METAR CYHU 090344Z AUTO 03009KT 5SM -RA BR OVC008 15/14 A2979 RMK SLP091 DENSITY ALT 300FT
11:18 p.m.
I
59 °F 8 mi 800 ft 020° 020° 12 kt METAR CYHU 090318Z AUTO 02012KT 8SM -RA OVC008 15/14 A2980 RMK SLP092 DENSITY ALT 300FT
11:00 p.m.
I
59 °F 9 mi 800 ft 020° 020° 11 - 16 kt METAR CYHU 090300Z AUTO 02011G16KT 9SM OVC008 15/14 A2980 RMK SLP092 DENSITY ALT 300FT
10:46 p.m.
I
59 °F 9 mi 600 ft 030° 030° 12 - 17 kt METAR CYHU 090246Z AUTO 03012G17KT 9SM OVC006 15/14 A2979 RMK SLP090 DENSITY ALT 300FT
Oudere gegevens

Met cookies volgen wij en derde partijen jouw internetgedrag binnen onze site. Als je verdergaat gaan we ervan uit dat je dit goedvindt. Meer info